sensor_id;sensor_type;location;lat;lon;timestamp;pressure;altitude;pressure_sealevel;temperature;humidity
81802;BME280;71199;52.490;5.448;2023-10-09T00:01:13;102086.78;;;13.46;98.96
81802;BME280;71199;52.490;5.448;2023-10-09T00:03:42;102090.03;;;13.41;99.21
81802;BME280;71199;52.490;5.448;2023-10-09T00:06:09;102089.16;;;13.41;99.44
81802;BME280;71199;52.490;5.448;2023-10-09T00:08:37;102080.56;;;13.44;99.42
81802;BME280;71199;52.490;5.448;2023-10-09T00:11:04;102083.66;;;13.41;99.95
81802;BME280;71199;52.490;5.448;2023-10-09T00:13:51;102067.94;;;13.41;99.66
81802;BME280;71199;52.490;5.448;2023-10-09T00:16:24;102073.69;;;13.48;99.55
81802;BME280;71199;52.490;5.448;2023-10-09T00:19:01;102070.25;;;13.54;99.59
81802;BME280;71199;52.490;5.448;2023-10-09T00:21:44;102059.25;;;13.62;99.27
81802;BME280;71199;52.490;5.448;2023-10-09T00:24:10;102057.19;;;13.64;99.37
81802;BME280;71199;52.490;5.448;2023-10-09T00:26:51;102053.78;;;13.70;99.00
81802;BME280;71199;52.490;5.448;2023-10-09T00:29:17;102051.03;;;13.70;99.13
81802;BME280;71199;52.490;5.448;2023-10-09T00:31:52;102046.53;;;13.69;99.37
81802;BME280;71199;52.490;5.448;2023-10-09T00:34:29;102047.25;;;13.72;99.42
81802;BME280;71199;52.490;5.448;2023-10-09T00:36:54;102051.75;;;13.81;99.12
81802;BME280;71199;52.490;5.448;2023-10-09T00:39:21;102042.28;;;13.83;99.21
81802;BME280;71199;52.490;5.448;2023-10-09T00:42:05;102048.50;;;13.85;99.35
81802;BME280;71199;52.490;5.448;2023-10-09T00:44:32;102035.91;;;13.91;99.14
81802;BME280;71199;52.490;5.448;2023-10-09T00:47:09;102039.06;;;13.96;98.79
81802;BME280;71199;52.490;5.448;2023-10-09T00:49:57;102038.72;;;13.99;98.59
81802;BME280;71199;52.490;5.448;2023-10-09T00:52:33;102028.03;;;14.04;98.30
81802;BME280;71199;52.490;5.448;2023-10-09T00:55:08;102017.69;;;14.06;98.54
81802;BME280;71199;52.490;5.448;2023-10-09T00:58:01;102030.66;;;14.14;98.20
81802;BME280;71199;52.490;5.448;2023-10-09T01:00:30;102028.06;;;14.13;98.00
81802;BME280;71199;52.490;5.448;2023-10-09T01:03:19;102031.84;;;14.11;97.96
81802;BME280;71199;52.490;5.448;2023-10-09T01:05:56;102022.53;;;14.13;98.01
81802;BME280;71199;52.490;5.448;2023-10-09T01:08:34;102021.31;;;14.07;98.10
81802;BME280;71199;52.490;5.448;2023-10-09T01:11:06;102029.41;;;14.00;98.76
81802;BME280;71199;52.490;5.448;2023-10-09T01:13:39;102021.09;;;13.92;98.81
81802;BME280;71199;52.490;5.448;2023-10-09T01:16:19;102018.00;;;14.03;99.24
81802;BME280;71199;52.490;5.448;2023-10-09T01:18:54;102009.72;;;14.03;99.12
81802;BME280;71199;52.490;5.448;2023-10-09T01:21:23;102008.84;;;14.03;99.41
81802;BME280;71199;52.490;5.448;2023-10-09T01:23:57;102009.88;;;14.02;99.66
81802;BME280;71199;52.490;5.448;2023-10-09T01:31:39;101997.16;;;14.17;99.39
81802;BME280;71199;52.490;5.448;2023-10-09T01:34:10;101992.63;;;14.16;99.76
81802;BME280;71199;52.490;5.448;2023-10-09T01:36:44;101993.34;;;14.26;99.66
81802;BME280;71199;52.490;5.448;2023-10-09T01:39:14;101990.97;;;14.31;99.51
81802;BME280;71199;52.490;5.448;2023-10-09T01:41:53;101980.06;;;14.38;99.11
81802;BME280;71199;52.490;5.448;2023-10-09T01:44:28;101973.00;;;14.44;98.69
81802;BME280;71199;52.490;5.448;2023-10-09T01:47:00;101962.81;;;14.52;98.42
81802;BME280;71199;52.490;5.448;2023-10-09T01:49:32;101968.91;;;14.56;98.26
81802;BME280;71199;52.490;5.448;2023-10-09T01:51:58;101963.13;;;14.49;98.36
81802;BME280;71199;52.490;5.448;2023-10-09T01:54:26;101970.41;;;14.50;98.37
81802;BME280;71199;52.490;5.448;2023-10-09T01:57:07;101963.16;;;14.58;98.09
81802;BME280;71199;52.490;5.448;2023-10-09T01:59:39;101964.50;;;14.54;98.24
81802;BME280;71199;52.490;5.448;2023-10-09T02:02:13;101958.13;;;14.53;98.39
81802;BME280;71199;52.490;5.448;2023-10-09T02:05:06;101965.94;;;14.58;98.02
81802;BME280;71199;52.490;5.448;2023-10-09T02:07:35;101977.69;;;14.60;98.01
81802;BME280;71199;52.490;5.448;2023-10-09T02:10:15;101967.69;;;14.59;98.15
81802;BME280;71199;52.490;5.448;2023-10-09T02:12:51;101964.91;;;14.67;97.91
81802;BME280;71199;52.490;5.448;2023-10-09T02:15:31;101957.84;;;14.64;97.96
81802;BME280;71199;52.490;5.448;2023-10-09T02:18:16;101948.63;;;14.72;97.74
81802;BME280;71199;52.490;5.448;2023-10-09T02:20:47;101951.75;;;14.77;97.51
81802;BME280;71199;52.490;5.448;2023-10-09T02:23:27;101932.41;;;14.77;97.28
81802;BME280;71199;52.490;5.448;2023-10-09T02:26:07;101940.16;;;14.82;97.27
81802;BME280;71199;52.490;5.448;2023-10-09T02:28:34;101949.69;;;14.87;96.94
81802;BME280;71199;52.490;5.448;2023-10-09T02:31:00;101956.22;;;14.86;97.01
81802;BME280;71199;52.490;5.448;2023-10-09T02:33:28;101940.50;;;14.95;97.04
81802;BME280;71199;52.490;5.448;2023-10-09T02:35:54;101933.75;;;14.98;96.85
81802;BME280;71199;52.490;5.448;2023-10-09T02:38:20;101948.44;;;15.06;96.61
81802;BME280;71199;52.490;5.448;2023-10-09T02:40:50;101957.25;;;15.02;96.52
81802;BME280;71199;52.490;5.448;2023-10-09T02:43:32;101948.28;;;15.00;96.75
81802;BME280;71199;52.490;5.448;2023-10-09T02:46:20;101948.28;;;15.00;96.53
81802;BME280;71199;52.490;5.448;2023-10-09T02:48:47;101931.50;;;15.01;96.86
81802;BME280;71199;52.490;5.448;2023-10-09T02:51:19;101928.38;;;15.04;96.75
81802;BME280;71199;52.490;5.448;2023-10-09T02:53:51;101924.88;;;15.10;96.37
81802;BME280;71199;52.490;5.448;2023-10-09T02:56:16;101923.16;;;15.18;95.76
81802;BME280;71199;52.490;5.448;2023-10-09T02:58:50;101910.00;;;15.20;95.80
81802;BME280;71199;52.490;5.448;2023-10-09T03:01:15;101912.94;;;15.18;95.80
81802;BME280;71199;52.490;5.448;2023-10-09T03:03:41;101906.84;;;15.23;95.75
81802;BME280;71199;52.490;5.448;2023-10-09T03:06:13;101914.47;;;15.21;95.76
81802;BME280;71199;52.490;5.448;2023-10-09T03:08:40;101918.09;;;15.21;95.68
81802;BME280;71199;52.490;5.448;2023-10-09T03:11:08;101913.97;;;15.17;95.74
81802;BME280;71199;52.490;5.448;2023-10-09T03:13:41;101915.53;;;15.20;95.88
81802;BME280;71199;52.490;5.448;2023-10-09T03:16:08;101911.72;;;15.21;95.66
81802;BME280;71199;52.490;5.448;2023-10-09T03:18:37;101914.66;;;15.19;95.57
81802;BME280;71199;52.490;5.448;2023-10-09T03:21:02;101909.81;;;15.13;95.97
81802;BME280;71199;52.490;5.448;2023-10-09T03:23:28;101916.03;;;15.15;96.04
81802;BME280;71199;52.490;5.448;2023-10-09T03:25:54;101924.34;;;15.15;95.95
81802;BME280;71199;52.490;5.448;2023-10-09T03:28:21;101922.81;;;15.13;96.06
81802;BME280;71199;52.490;5.448;2023-10-09T03:30:46;101934.59;;;15.06;95.96
81802;BME280;71199;52.490;5.448;2023-10-09T03:33:13;101939.97;;;15.08;96.28
81802;BME280;71199;52.490;5.448;2023-10-09T03:35:40;101945.81;;;15.05;96.38
81802;BME280;71199;52.490;5.448;2023-10-09T03:38:05;101927.66;;;15.10;96.00
81802;BME280;71199;52.490;5.448;2023-10-09T03:40:44;101934.72;;;15.13;95.96
81802;BME280;71199;52.490;5.448;2023-10-09T03:43:13;101934.72;;;15.13;95.95
81802;BME280;71199;52.490;5.448;2023-10-09T03:45:39;101931.63;;;15.16;96.19
81802;BME280;71199;52.490;5.448;2023-10-09T03:48:11;101925.72;;;15.19;95.76
81802;BME280;71199;52.490;5.448;2023-10-09T03:50:48;101935.09;;;15.18;95.64
81802;BME280;71199;52.490;5.448;2023-10-09T03:53:14;101943.72;;;15.23;95.62
81802;BME280;71199;52.490;5.448;2023-10-09T03:55:40;101946.47;;;15.23;95.49
81802;BME280;71199;52.490;5.448;2023-10-09T03:58:09;101945.09;;;15.19;95.87
81802;BME280;71199;52.490;5.448;2023-10-09T04:00:37;101926.75;;;15.26;95.60
81802;BME280;71199;52.490;5.448;2023-10-09T04:03:14;101927.09;;;15.23;95.77
81802;BME280;71199;52.490;5.448;2023-10-09T04:05:41;101928.47;;;15.27;95.56
81802;BME280;71199;52.490;5.448;2023-10-09T04:08:09;101920.84;;;15.29;95.48
81802;BME280;71199;52.490;5.448;2023-10-09T04:10:41;101921.53;;;15.31;95.52
81802;BME280;71199;52.490;5.448;2023-10-09T04:13:19;101922.22;;;15.34;95.25
81802;BME280;71199;52.490;5.448;2023-10-09T04:15:49;101909.44;;;15.32;95.70
81802;BME280;71199;52.490;5.448;2023-10-09T04:18:15;101907.47;;;15.41;95.05
81802;BME280;71199;52.490;5.448;2023-10-09T04:20:42;101896.75;;;15.46;94.92
81802;BME280;71199;52.490;5.448;2023-10-09T04:23:10;101899.59;;;15.61;94.15
81802;BME280;71199;52.490;5.448;2023-10-09T04:25:41;101894.38;;;15.66;93.75
81802;BME280;71199;52.490;5.448;2023-10-09T04:28:09;101904.47;;;15.59;93.97
81802;BME280;71199;52.490;5.448;2023-10-09T04:30:38;101928.72;;;15.57;94.02
81802;BME280;71199;52.490;5.448;2023-10-09T04:33:12;101917.97;;;15.54;94.32
81802;BME280;71199;52.490;5.448;2023-10-09T04:36:07;101920.41;;;15.57;94.38
81802;BME280;71199;52.490;5.448;2023-10-09T04:38:49;101919.00;;;15.61;94.27
81802;BME280;71199;52.490;5.448;2023-10-09T04:41:33;101923.31;;;15.64;94.04
81802;BME280;71199;52.490;5.448;2023-10-09T04:44:16;101920.72;;;15.62;94.56
81802;BME280;71199;52.490;5.448;2023-10-09T04:46:49;101919.00;;;15.61;94.50
81802;BME280;71199;52.490;5.448;2023-10-09T04:49:34;101924.53;;;15.61;94.55
81802;BME280;71199;52.490;5.448;2023-10-09T04:52:19;101927.81;;;15.65;94.33
81802;BME280;71199;52.490;5.448;2023-10-09T04:54:50;101926.94;;;15.64;94.48
81802;BME280;71199;52.490;5.448;2023-10-09T04:57:39;101927.94;;;15.71;94.07
81802;BME280;71199;52.490;5.448;2023-10-09T05:00:11;101937.66;;;15.76;94.22
81802;BME280;71199;52.490;5.448;2023-10-09T05:02:54;101942.69;;;15.72;94.27
81802;BME280;71199;52.490;5.448;2023-10-09T05:05:28;101956.63;;;15.87;93.79
81802;BME280;71199;52.490;5.448;2023-10-09T05:08:06;101963.94;;;15.88;93.90
81802;BME280;71199;52.490;5.448;2023-10-09T05:16:17;101992.25;;;16.06;93.39
81802;BME280;71199;52.490;5.448;2023-10-09T05:18:53;101990.00;;;16.02;93.67
81802;BME280;71199;52.490;5.448;2023-10-09T05:21:25;101984.44;;;16.02;93.79
81802;BME280;71199;52.490;5.448;2023-10-09T05:23:58;101987.78;;;15.97;94.24
81802;BME280;71199;52.490;5.448;2023-10-09T05:26:40;101984.50;;;15.94;94.46
81802;BME280;71199;52.490;5.448;2023-10-09T05:29:22;101992.31;;;15.90;95.01
81802;BME280;71199;52.490;5.448;2023-10-09T05:31:54;101985.72;;;15.91;95.26
81802;BME280;71199;52.490;5.448;2023-10-09T05:34:29;101969.09;;;15.91;95.18
81802;BME280;71199;52.490;5.448;2023-10-09T05:37:13;101969.13;;;15.83;95.70
81802;BME280;71199;52.490;5.448;2023-10-09T05:39:53;101974.34;;;15.86;95.71
81802;BME280;71199;52.490;5.448;2023-10-09T05:42:32;101974.13;;;15.87;95.39
81802;BME280;71199;52.490;5.448;2023-10-09T05:45:18;101957.69;;;15.86;95.79
81802;BME280;71199;52.490;5.448;2023-10-09T05:47:47;101936.94;;;15.82;96.25
81802;BME280;71199;52.490;5.448;2023-10-09T05:50:24;101955.97;;;15.85;95.82
81802;BME280;71199;52.490;5.448;2023-10-09T05:52:53;101962.53;;;15.92;95.71
81802;BME280;71199;52.490;5.448;2023-10-09T05:55:20;101959.25;;;15.88;95.70
81802;BME280;71199;52.490;5.448;2023-10-09T05:58:03;101964.97;;;15.87;95.88
81802;BME280;71199;52.490;5.448;2023-10-09T06:00:47;101977.09;;;15.86;96.01
81802;BME280;71199;52.490;5.448;2023-10-09T06:03:51;101984.34;;;15.87;96.23
81802;BME280;71199;52.490;5.448;2023-10-09T06:06:23;101977.78;;;15.88;96.13
81802;BME280;71199;52.490;5.448;2023-10-09T06:09:13;101964.59;;;15.90;95.89
81802;BME280;71199;52.490;5.448;2023-10-09T06:11:40;101968.91;;;15.93;95.86
81802;BME280;71199;52.490;5.448;2023-10-09T06:14:06;101973.22;;;15.95;95.71
81802;BME280;71199;52.490;5.448;2023-10-09T06:16:39;101964.19;;;16.01;95.50
81802;BME280;71199;52.490;5.448;2023-10-09T06:19:14;101953.47;;;15.98;95.33
81802;BME280;71199;52.490;5.448;2023-10-09T06:21:53;101930.75;;;16.03;95.45
81802;BME280;71199;52.490;5.448;2023-10-09T06:24:40;101938.38;;;16.01;95.08
81802;BME280;71199;52.490;5.448;2023-10-09T06:27:18;101958.13;;;15.98;95.45
81802;BME280;71199;52.490;5.448;2023-10-09T06:29:57;101962.13;;;15.95;95.55
81802;BME280;71199;52.490;5.448;2023-10-09T06:32:38;101967.69;;;15.95;95.54
81802;BME280;71199;52.490;5.448;2023-10-09T06:35:14;101961.59;;;16.00;95.48
81802;BME280;71199;52.490;5.448;2023-10-09T06:37:57;101964.56;;;15.98;95.26
81802;BME280;71199;52.490;5.448;2023-10-09T06:40:32;101958.13;;;15.98;95.37
81802;BME280;71199;52.490;5.448;2023-10-09T06:43:19;101964.56;;;15.98;95.34
81802;BME280;71199;52.490;5.448;2023-10-09T06:45:52;101971.47;;;16.02;95.41
81802;BME280;71199;52.490;5.448;2023-10-09T06:48:27;101972.16;;;16.04;95.10
81802;BME280;71199;52.490;5.448;2023-10-09T06:50:56;101973.53;;;16.08;95.23
81802;BME280;71199;52.490;5.448;2023-10-09T06:53:29;101969.38;;;16.04;95.16
81802;BME280;71199;52.490;5.448;2023-10-09T06:56:14;101967.97;;;16.08;95.17
81802;BME280;71199;52.490;5.448;2023-10-09T06:58:52;101959.78;;;16.15;94.66
81802;BME280;71199;52.490;5.448;2023-10-09T07:01:25;101959.91;;;16.22;94.13
81802;BME280;71199;52.490;5.448;2023-10-09T07:03:54;101962.16;;;16.18;94.28
81802;BME280;71199;52.490;5.448;2023-10-09T07:06:26;101963.22;;;16.17;94.53
81802;BME280;71199;52.490;5.448;2023-10-09T07:09:01;101971.56;;;16.17;94.44
81802;BME280;71199;52.490;5.448;2023-10-09T07:11:40;101968.03;;;16.23;93.95
81802;BME280;71199;52.490;5.448;2023-10-09T07:14:16;101968.53;;;16.27;93.91
81802;BME280;71199;52.490;5.448;2023-10-09T07:17:05;101955.34;;;16.29;93.50
81802;BME280;71199;52.490;5.448;2023-10-09T07:19:50;101956.78;;;16.25;93.85
81802;BME280;71199;52.490;5.448;2023-10-09T07:22:16;101947.03;;;16.29;93.67
81802;BME280;71199;52.490;5.448;2023-10-09T07:24:51;101960.00;;;16.28;93.84
81802;BME280;71199;52.490;5.448;2023-10-09T07:27:27;101977.53;;;16.29;93.70
81802;BME280;71199;52.490;5.448;2023-10-09T07:30:13;101963.28;;;16.32;93.70
81802;BME280;71199;52.490;5.448;2023-10-09T07:33:03;101961.88;;;16.36;93.46
81802;BME280;71199;52.490;5.448;2023-10-09T07:38:17;101934.81;;;16.38;93.74
81802;BME280;71199;52.490;5.448;2023-10-09T07:40:50;101931.69;;;16.41;93.84
81802;BME280;71199;52.490;5.448;2023-10-09T07:43:42;101946.25;;;16.43;94.00
81802;BME280;71199;52.490;5.448;2023-10-09T07:46:19;101977.03;;;16.48;93.94
81802;BME280;71199;52.490;5.448;2023-10-09T07:49:17;101973.53;;;16.55;94.14
81802;BME280;71199;52.490;5.448;2023-10-09T07:51:50;101959.75;;;16.61;93.68
81802;BME280;71199;52.490;5.448;2023-10-09T07:54:18;101930.22;;;16.68;93.17
81802;BME280;71199;52.490;5.448;2023-10-09T07:56:57;101935.03;;;16.75;93.16
81802;BME280;71199;52.490;5.448;2023-10-09T07:59:34;101947.31;;;16.80;92.65
81802;BME280;71199;52.490;5.448;2023-10-09T08:02:06;101948.69;;;16.84;92.70
81802;BME280;71199;52.490;5.448;2023-10-09T08:04:34;101950.72;;;16.90;92.31
81802;BME280;71199;52.490;5.448;2023-10-09T08:07:06;101962.00;;;16.89;92.35
81802;BME280;71199;52.490;5.448;2023-10-09T08:09:33;101954.84;;;16.95;91.84
81802;BME280;71199;52.490;5.448;2023-10-09T08:12:16;101969.19;;;16.98;91.83
81802;BME280;71199;52.490;5.448;2023-10-09T08:15:04;101993.25;;;17.06;91.61
81802;BME280;71199;52.490;5.448;2023-10-09T08:20:23;102019.50;;;17.18;90.67
81802;BME280;71199;52.490;5.448;2023-10-09T08:22:55;102028.34;;;17.22;90.50
81802;BME280;71199;52.490;5.448;2023-10-09T08:25:24;102030.13;;;17.29;89.71
81802;BME280;71199;52.490;5.448;2023-10-09T08:28:00;102033.72;;;17.38;89.60
81802;BME280;71199;52.490;5.448;2023-10-09T08:30:46;102038.44;;;17.52;88.47
81802;BME280;71199;52.490;5.448;2023-10-09T08:33:17;102051.56;;;17.59;87.48
81802;BME280;71199;52.490;5.448;2023-10-09T08:35:53;102066.91;;;17.69;86.47
81802;BME280;71199;52.490;5.448;2023-10-09T08:38:27;102074.84;;;17.72;86.08
81802;BME280;71199;52.490;5.448;2023-10-09T08:41:06;102044.06;;;17.74;86.46
81802;BME280;71199;52.490;5.448;2023-10-09T08:43:40;102048.88;;;17.80;86.12
81802;BME280;71199;52.490;5.448;2023-10-09T08:46:10;102062.03;;;17.86;85.94
81802;BME280;71199;52.490;5.448;2023-10-09T08:48:38;102071.63;;;17.84;85.73
81802;BME280;71199;52.490;5.448;2023-10-09T08:51:04;102069.00;;;17.82;86.43
81802;BME280;71199;52.490;5.448;2023-10-09T08:53:31;102077.00;;;17.85;86.63
81802;BME280;71199;52.490;5.448;2023-10-09T08:55:58;102084.94;;;17.88;86.55
81802;BME280;71199;52.490;5.448;2023-10-09T08:58:23;102091.78;;;17.86;86.66
81802;BME280;71199;52.490;5.448;2023-10-09T09:00:58;102090.25;;;17.83;86.76
81802;BME280;71199;52.490;5.448;2023-10-09T09:03:26;102088.66;;;17.81;86.99
81802;BME280;71199;52.490;5.448;2023-10-09T09:06:02;102079.28;;;17.82;87.20
81802;BME280;71199;52.490;5.448;2023-10-09T09:08:29;102068.00;;;17.83;87.02
81802;BME280;71199;52.490;5.448;2023-10-09T09:11:03;102072.56;;;17.91;86.79
81802;BME280;71199;52.490;5.448;2023-10-09T09:13:45;102079.28;;;17.82;87.12
81802;BME280;71199;52.490;5.448;2023-10-09T09:16:21;102077.53;;;17.81;86.86
81802;BME280;71199;52.490;5.448;2023-10-09T09:18:50;102082.56;;;17.85;86.57
81802;BME280;71199;52.490;5.448;2023-10-09T09:21:18;102087.53;;;17.90;86.36
81802;BME280;71199;52.490;5.448;2023-10-09T09:23:58;102082.66;;;17.92;85.98
81802;BME280;71199;52.490;5.448;2023-10-09T09:26:38;102073.25;;;17.93;85.93
81802;BME280;71199;52.490;5.448;2023-10-09T09:29:10;102074.50;;;17.90;86.01
81802;BME280;71199;52.490;5.448;2023-10-09T09:31:36;102065.13;;;17.91;86.07
81802;BME280;71199;52.490;5.448;2023-10-09T09:34:06;102059.34;;;17.93;86.19
81802;BME280;71199;52.490;5.448;2023-10-09T09:36:50;102065.38;;;17.97;85.87
81802;BME280;71199;52.490;5.448;2023-10-09T09:39:21;102063.00;;;17.94;85.90
81802;BME280;71199;52.490;5.448;2023-10-09T09:42:01;102067.88;;;18.06;85.55
81802;BME280;71199;52.490;5.448;2023-10-09T09:44:33;102077.16;;;18.13;85.28
81802;BME280;71199;52.490;5.448;2023-10-09T09:47:09;102076.59;;;18.18;85.06
81802;BME280;71199;52.490;5.448;2023-10-09T09:49:40;102080.25;;;18.19;85.11
81802;BME280;71199;52.490;5.448;2023-10-09T09:52:06;102079.47;;;18.25;84.71
81802;BME280;71199;52.490;5.448;2023-10-09T09:54:36;102082.91;;;18.27;84.77
81802;BME280;71199;52.490;5.448;2023-10-09T09:57:03;102080.63;;;18.30;84.35
81802;BME280;71199;52.490;5.448;2023-10-09T09:59:41;102073.31;;;18.29;84.64
81802;BME280;71199;52.490;5.448;2023-10-09T10:02:20;102072.59;;;18.42;84.33
81802;BME280;71199;52.490;5.448;2023-10-09T10:04:47;102072.78;;;18.56;83.76
81802;BME280;71199;52.490;5.448;2023-10-09T10:07:15;102083.78;;;18.64;83.51
81802;BME280;71199;52.490;5.448;2023-10-09T10:09:42;102087.97;;;18.75;82.69
81802;BME280;71199;52.490;5.448;2023-10-09T10:12:10;102081.44;;;18.82;82.33
81802;BME280;71199;52.490;5.448;2023-10-09T10:17:17;102092.00;;;18.87;82.18
81802;BME280;71199;52.490;5.448;2023-10-09T10:20:07;102103.31;;;18.85;81.78
81802;BME280;71199;52.490;5.448;2023-10-09T10:23:15;102102.84;;;18.82;82.02
81802;BME280;71199;52.490;5.448;2023-10-09T10:25:44;102093.81;;;18.80;82.18
81802;BME280;71199;52.490;5.448;2023-10-09T10:30:47;102080.22;;;18.70;82.55
81802;BME280;71199;52.490;5.448;2023-10-09T10:33:16;102093.72;;;18.73;82.35
81802;BME280;71199;52.490;5.448;2023-10-09T10:35:41;102092.69;;;18.74;82.13
81802;BME280;71199;52.490;5.448;2023-10-09T10:38:26;102093.25;;;18.84;81.86
81802;BME280;71199;52.490;5.448;2023-10-09T10:41:10;102089.00;;;18.88;81.63
81802;BME280;71199;52.490;5.448;2023-10-09T10:43:37;102090.13;;;18.94;81.05
81802;BME280;71199;52.490;5.448;2023-10-09T10:46:18;102092.03;;;18.93;81.04
81802;BME280;71199;52.490;5.448;2023-10-09T10:48:47;102088.78;;;18.90;80.99
81802;BME280;71199;52.490;5.448;2023-10-09T10:51:14;102087.28;;;18.87;80.87
81802;BME280;71199;52.490;5.448;2023-10-09T10:53:53;102084.22;;;18.82;80.99
81802;BME280;71199;52.490;5.448;2023-10-09T10:56:38;102095.38;;;18.67;81.36
81802;BME280;71199;52.490;5.448;2023-10-09T10:59:04;102104.13;;;18.64;81.37
81802;BME280;71199;52.490;5.448;2023-10-09T11:01:31;102114.13;;;18.59;81.62
81802;BME280;71199;52.490;5.448;2023-10-09T11:04:26;102110.00;;;18.55;81.95
81802;BME280;71199;52.490;5.448;2023-10-09T11:06:55;102109.88;;;18.63;81.52
81802;BME280;71199;52.490;5.448;2023-10-09T11:09:48;102112.38;;;18.72;81.02
81802;BME280;71199;52.490;5.448;2023-10-09T11:12:42;102121.56;;;18.73;81.45
81802;BME280;71199;52.490;5.448;2023-10-09T11:15:10;102117.25;;;18.70;81.39
81802;BME280;71199;52.490;5.448;2023-10-09T11:18:21;102110.63;;;18.71;81.35
81802;BME280;71199;52.490;5.448;2023-10-09T11:20:54;102119.06;;;18.78;81.22
81802;BME280;71199;52.490;5.448;2023-10-09T11:23:30;102115.16;;;18.72;81.45
81802;BME280;71199;52.490;5.448;2023-10-09T11:25:59;102116.13;;;18.65;81.25
81802;BME280;71199;52.490;5.448;2023-10-09T11:28:43;102123.91;;;18.55;82.03
81802;BME280;71199;52.490;5.448;2023-10-09T11:31:22;102119.13;;;18.48;82.26
81802;BME280;71199;52.490;5.448;2023-10-09T11:33:52;102118.19;;;18.41;82.76
81802;BME280;71199;52.490;5.448;2023-10-09T11:36:18;102119.06;;;18.42;82.68
81802;BME280;71199;52.490;5.448;2023-10-09T11:38:57;102121.44;;;18.45;82.54
81802;BME280;71199;52.490;5.448;2023-10-09T11:41:42;102124.63;;;18.42;82.76
81802;BME280;71199;52.490;5.448;2023-10-09T11:44:07;102123.97;;;18.40;83.10
81802;BME280;71199;52.490;5.448;2023-10-09T11:46:59;102117.78;;;18.44;82.96
81802;BME280;71199;52.490;5.448;2023-10-09T11:49:51;102116.28;;;18.42;83.29
81802;BME280;71199;52.490;5.448;2023-10-09T11:52:30;102107.75;;;18.43;83.16
81802;BME280;71199;52.490;5.448;2023-10-09T11:55:00;102098.19;;;18.52;82.70
81802;BME280;71199;52.490;5.448;2023-10-09T11:57:26;102102.25;;;18.50;82.98
81802;BME280;71199;52.490;5.448;2023-10-09T11:59:59;102102.19;;;18.43;83.50
81802;BME280;71199;52.490;5.448;2023-10-09T12:02:25;102102.28;;;18.35;83.74
81802;BME280;71199;52.490;5.448;2023-10-09T12:04:51;102096.72;;;18.35;83.69
81802;BME280;71199;52.490;5.448;2023-10-09T12:07:17;102099.22;;;18.30;83.78
81802;BME280;71199;52.490;5.448;2023-10-09T12:09:45;102097.50;;;18.29;83.94
81802;BME280;71199;52.490;5.448;2023-10-09T12:12:11;102104.09;;;18.28;84.30
81802;BME280;71199;52.490;5.448;2023-10-09T12:14:36;102104.50;;;18.25;84.50
81802;BME280;71199;52.490;5.448;2023-10-09T12:17:08;102100.88;;;18.24;84.43
81802;BME280;71199;52.490;5.448;2023-10-09T12:19:34;102108.06;;;18.19;84.72
81802;BME280;71199;52.490;5.448;2023-10-09T12:22:01;102095.88;;;18.20;84.48
81802;BME280;71199;52.490;5.448;2023-10-09T12:24:32;102103.16;;;18.21;84.79
81802;BME280;71199;52.490;5.448;2023-10-09T12:26:58;102097.72;;;18.12;85.30
81802;BME280;71199;52.490;5.448;2023-10-09T12:29:24;102115.16;;;18.06;85.17
81802;BME280;71199;52.490;5.448;2023-10-09T12:31:54;102115.06;;;18.00;85.46
81802;BME280;71199;52.490;5.448;2023-10-09T12:34:26;102107.78;;;17.99;85.41
81802;BME280;71199;52.490;5.448;2023-10-09T12:36:55;102114.59;;;17.96;85.61
81802;BME280;71199;52.490;5.448;2023-10-09T12:39:23;102102.50;;;17.89;85.95
81802;BME280;71199;52.490;5.448;2023-10-09T12:41:49;102108.44;;;17.86;86.13
81802;BME280;71199;52.490;5.448;2023-10-09T12:44:19;102105.28;;;17.89;86.03
81802;BME280;71199;52.490;5.448;2023-10-09T12:46:45;102103.56;;;17.88;86.10
81802;BME280;71199;52.490;5.448;2023-10-09T12:49:21;102109.97;;;17.88;85.71
81802;BME280;71199;52.490;5.448;2023-10-09T12:51:53;102104.41;;;17.88;85.52
81802;BME280;71199;52.490;5.448;2023-10-09T12:54:18;102108.16;;;17.96;85.07
81802;BME280;71199;52.490;5.448;2023-10-09T12:56:45;102103.06;;;17.99;84.62
81802;BME280;71199;52.490;5.448;2023-10-09T12:59:14;102096.28;;;18.02;84.49
81802;BME280;71199;52.490;5.448;2023-10-09T13:01:43;102094.44;;;18.09;84.02
81802;BME280;71199;52.490;5.448;2023-10-09T13:04:12;102095.31;;;18.24;83.53
81802;BME280;71199;52.490;5.448;2023-10-09T13:06:43;102104.78;;;18.30;83.62
81802;BME280;71199;52.490;5.448;2023-10-09T13:09:18;102101.56;;;18.48;83.86
81802;BME280;71199;52.490;5.448;2023-10-09T13:12:08;102094.81;;;18.57;83.52
81802;BME280;71199;52.490;5.448;2023-10-09T13:14:35;102099.69;;;18.70;83.46
81802;BME280;71199;52.490;5.448;2023-10-09T13:17:01;102098.53;;;18.79;83.31
81802;BME280;71199;52.490;5.448;2023-10-09T13:19:34;102096.94;;;18.91;82.56
81802;BME280;71199;52.490;5.448;2023-10-09T13:21:59;102092.09;;;19.00;82.60
81802;BME280;71199;52.490;5.448;2023-10-09T13:24:28;102089.66;;;19.12;82.19
81802;BME280;71199;52.490;5.448;2023-10-09T13:26:55;102088.59;;;19.13;81.92
81802;BME280;71199;52.490;5.448;2023-10-09T13:29:23;102100.47;;;19.22;81.32
81802;BME280;71199;52.490;5.448;2023-10-09T13:31:50;102092.13;;;19.22;80.72
81802;BME280;71199;52.490;5.448;2023-10-09T13:34:24;102086.72;;;19.20;80.72
81802;BME280;71199;52.490;5.448;2023-10-09T13:36:53;102080.03;;;19.15;80.83
81802;BME280;71199;52.490;5.448;2023-10-09T13:39:19;102071.22;;;19.11;80.92
81802;BME280;71199;52.490;5.448;2023-10-09T13:41:56;102080.91;;;19.15;80.85
81802;BME280;71199;52.490;5.448;2023-10-09T13:44:25;102079.31;;;19.06;81.34
81802;BME280;71199;52.490;5.448;2023-10-09T13:46:55;102074.16;;;19.03;81.54